createdAt,value
2022-09-02T00:01:34.128Z,98039.09
2022-09-02T00:04:05.391Z,98041.91
2022-09-02T00:06:33.657Z,98037.31
2022-09-02T00:09:02.656Z,98031.91
2022-09-02T00:11:32.384Z,98033.19
2022-09-02T00:14:03.730Z,98034.44
2022-09-02T00:16:33.496Z,98032.34
2022-09-02T00:19:03.461Z,98030.06
2022-09-02T00:21:32.998Z,98040.31
2022-09-02T00:24:00.684Z,98039.13
2022-09-02T00:26:28.298Z,98033.94
2022-09-02T00:28:56.501Z,98030.63
2022-09-02T00:31:25.424Z,98027.78
2022-09-02T00:33:54.469Z,98022.00
2022-09-02T00:36:22.896Z,98022.44
2022-09-02T00:38:50.629Z,98018.91
2022-09-02T00:41:21.514Z,98022.06
2022-09-02T00:43:52.721Z,98025.63
2022-09-02T00:46:22.353Z,98014.34
2022-09-02T00:48:57.805Z,98011.91
2022-09-02T00:51:27.388Z,98010.84
2022-09-02T00:53:55.474Z,98007.53
2022-09-02T00:56:26.749Z,97999.88
2022-09-02T00:58:56.467Z,98001.13
2022-09-02T01:01:24.638Z,98000.06
2022-09-02T01:03:52.867Z,97999.13
2022-09-02T01:06:25.187Z,97999.13
2022-09-02T01:08:58.328Z,97997.09
2022-09-02T01:11:31.991Z,98005.22
2022-09-02T01:14:01.837Z,98004.00
2022-09-02T01:16:34.721Z,98005.88
2022-09-02T01:19:10.304Z,98002.34
2022-09-02T01:21:40.502Z,97998.66
2022-09-02T01:24:09.493Z,98004.50
2022-09-02T01:26:37.275Z,98011.81
2022-09-02T01:29:04.882Z,98002.47
2022-09-02T01:31:32.558Z,98005.19
2022-09-02T01:34:00.162Z,97999.19
2022-09-02T01:36:27.766Z,98002.09
2022-09-02T01:38:55.721Z,97999.63
2022-09-02T01:41:24.656Z,97996.31
2022-09-02T01:43:52.666Z,97995.94
2022-09-02T01:46:20.430Z,97990.75
2022-09-02T01:48:48.052Z,97989.78
2022-09-02T01:51:19.856Z,97989.78
2022-09-02T01:53:48.946Z,97988.13
2022-09-02T01:56:17.470Z,97985.03
2022-09-02T01:58:46.381Z,97982.53
2022-09-02T02:01:14.056Z,97980.88
2022-09-02T02:03:42.460Z,97978.63
2022-09-02T02:06:12.124Z,97983.44
2022-09-02T02:08:39.871Z,97981.78
2022-09-02T02:11:08.812Z,97979.09
2022-09-02T02:13:37.538Z,97972.47
2022-09-02T02:16:06.805Z,97969.19
2022-09-02T02:18:34.667Z,97972.22
2022-09-02T02:21:02.309Z,97969.66
2022-09-02T02:23:29.947Z,97971.34
2022-09-02T02:25:57.671Z,97969.66
2022-09-02T02:28:25.246Z,97968.25
2022-09-02T02:30:52.888Z,97973.88
2022-09-02T02:33:21.887Z,97971.81
2022-09-02T02:35:53.751Z,97981.59
2022-09-02T02:38:23.972Z,97970.03
2022-09-02T02:40:57.470Z,97971.91
2022-09-02T02:43:25.118Z,97973.56
2022-09-02T02:45:54.262Z,97971.50
2022-09-02T02:48:23.441Z,97973.59
2022-09-02T02:50:51.051Z,97971.13
2022-09-02T02:53:19.003Z,97966.53
2022-09-02T02:55:47.108Z,97973.22
2022-09-02T02:58:18.098Z,97974.25
2022-09-02T03:00:46.252Z,97968.25
2022-09-02T03:03:19.438Z,97972.44
2022-09-02T03:05:49.258Z,97966.00
2022-09-02T03:08:18.988Z,97963.53
2022-09-02T03:10:47.138Z,97966.66
2022-09-02T03:13:15.564Z,97956.69
2022-09-02T03:15:43.638Z,97960.03
2022-09-02T03:18:11.267Z,97959.84
2022-09-02T03:20:40.760Z,97961.69
2022-09-02T03:23:10.149Z,97961.75
2022-09-02T03:25:37.846Z,97955.72
2022-09-02T03:28:05.940Z,97960.09
2022-09-02T03:30:35.323Z,97956.38
2022-09-02T03:33:05.381Z,97950.59
2022-09-02T03:35:33.973Z,97957.88
2022-09-02T03:38:02.093Z,97950.59
2022-09-02T03:40:31.429Z,97954.97
2022-09-02T03:43:00.335Z,97950.44
2022-09-02T03:45:28.638Z,97943.38
2022-09-02T03:47:56.903Z,97948.16
2022-09-02T03:50:28.000Z,97948.16
2022-09-02T03:52:56.050Z,97953.81
2022-09-02T03:55:24.521Z,97946.34
2022-09-02T03:57:53.902Z,97949.50
2022-09-02T04:00:24.431Z,97949.09
2022-09-02T04:02:53.157Z,97953.03
2022-09-02T04:05:22.346Z,97951.81
2022-09-02T04:07:52.636Z,97949.75
2022-09-02T04:10:21.852Z,97951.63
2022-09-02T04:12:49.655Z,97957.63
2022-09-02T04:15:20.022Z,97954.91
2022-09-02T04:17:47.774Z,97954.75
2022-09-02T04:20:16.156Z,97956.00
2022-09-02T04:22:43.751Z,97954.13
2022-09-02T04:25:11.726Z,97958.75
2022-09-02T04:27:40.047Z,97953.13
2022-09-02T04:30:10.071Z,97956.66
2022-09-02T04:32:40.810Z,97952.13
2022-09-02T04:35:09.111Z,97951.91
2022-09-02T04:37:36.692Z,97958.56
2022-09-02T04:40:05.344Z,97957.72
2022-09-02T04:42:33.608Z,97960.88
2022-09-02T04:45:01.188Z,97953.22
2022-09-02T04:47:29.203Z,97949.47
2022-09-02T04:49:58.416Z,97955.91
2022-09-02T04:52:26.942Z,97949.88
2022-09-02T04:54:54.670Z,97956.13
2022-09-02T04:57:22.390Z,97959.03
2022-09-02T04:59:49.989Z,97961.75
2022-09-02T05:02:17.673Z,97956.56
2022-09-02T05:04:45.325Z,97962.59
2022-09-02T05:07:14.265Z,97954.50
2022-09-02T05:09:41.842Z,97959.44
2022-09-02T05:12:09.954Z,97967.34
2022-09-02T05:14:37.692Z,97966.50
2022-09-02T05:17:07.790Z,97962.16
2022-09-02T05:19:36.032Z,97970.47
2022-09-02T05:22:04.720Z,97962.78
2022-09-02T05:24:33.654Z,97965.03
2022-09-02T05:27:01.270Z,97965.25
2022-09-02T05:29:28.879Z,97968.75
2022-09-02T05:31:56.675Z,97961.06
2022-09-02T05:34:24.485Z,97973.91
2022-09-02T05:36:52.119Z,97972.25
2022-09-02T05:39:19.685Z,97970.63
2022-09-02T05:41:48.709Z,97967.50
2022-09-02T05:44:16.317Z,97966.22
2022-09-02T05:46:48.597Z,97969.75
2022-09-02T05:49:18.231Z,97964.97
2022-09-02T05:51:48.192Z,97968.50
2022-09-02T05:54:18.099Z,97963.50
2022-09-02T05:56:49.142Z,97968.66
2022-09-02T05:59:17.103Z,97968.28
2022-09-02T06:01:45.141Z,97958.94
2022-09-02T06:04:12.853Z,97958.31
2022-09-02T06:06:40.977Z,97963.50
2022-09-02T06:09:10.558Z,97971.22
2022-09-02T06:11:40.250Z,97973.22
2022-09-02T06:14:09.307Z,97972.59
2022-09-02T06:16:38.555Z,97973.22
2022-09-02T06:19:06.327Z,97977.16
2022-09-02T06:21:37.552Z,97976.13
2022-09-02T06:24:07.021Z,97971.56
2022-09-02T06:26:34.708Z,97970.53
2022-09-02T06:29:02.308Z,97974.06
2022-09-02T06:31:34.633Z,97968.00
2022-09-02T06:34:03.670Z,97966.09
2022-09-02T06:36:32.442Z,97969.03
2022-09-02T06:39:01.951Z,97969.03
2022-09-02T06:41:33.341Z,97971.50
2022-09-02T06:44:04.172Z,97967.94
2022-09-02T06:46:38.956Z,97967.75
2022-09-02T06:49:08.985Z,97963.84
2022-09-02T06:51:39.460Z,97965.91
2022-09-02T06:54:09.264Z,97966.94
2022-09-02T06:56:38.318Z,97965.69
2022-09-02T06:59:07.074Z,97971.09
2022-09-02T07:01:36.998Z,97966.28
2022-09-02T07:04:23.171Z,97974.63
2022-09-02T07:06:54.072Z,97967.69
2022-09-02T07:09:30.993Z,97971.38
2022-09-02T07:12:04.184Z,97964.94
2022-09-02T07:14:33.208Z,97960.75
2022-09-02T07:17:02.234Z,97959.50
2022-09-02T07:19:29.849Z,97959.38
2022-09-02T07:21:57.505Z,97957.69
2022-09-02T07:24:25.645Z,97957.22
2022-09-02T07:26:55.828Z,97954.91
2022-09-02T07:29:24.249Z,97957.38
2022-09-02T07:31:52.583Z,97954.91
2022-09-02T07:34:21.966Z,97959.81
2022-09-02T07:36:49.767Z,97956.50
2022-09-02T07:39:18.758Z,97959.34
2022-09-02T07:41:49.152Z,97954.94
2022-09-02T07:44:18.024Z,97955.53
2022-09-02T07:46:46.864Z,97955.88
2022-09-02T07:49:15.585Z,97956.03
2022-09-02T07:51:49.149Z,97957.06
2022-09-02T07:54:18.205Z,97957.84
2022-09-02T07:56:46.330Z,97949.13
2022-09-02T07:59:13.920Z,97949.88
2022-09-02T08:04:16.596Z,97952.50
2022-09-02T08:06:45.704Z,97950.63
2022-09-02T08:09:13.836Z,97954.75
2022-09-02T08:11:44.412Z,97950.25
2022-09-02T08:14:17.716Z,97953.72
2022-09-02T08:16:46.641Z,97957.38
2022-09-02T08:19:16.084Z,97958.31
2022-09-02T08:21:45.445Z,97963.53
2022-09-02T08:24:13.059Z,97960.53
2022-09-02T08:26:40.687Z,97958.22
2022-09-02T08:29:10.062Z,97946.41
2022-09-02T08:31:39.088Z,97955.19
2022-09-02T08:34:06.866Z,97954.34
2022-09-02T08:36:34.728Z,97952.69
2022-09-02T08:39:05.469Z,97941.53
2022-09-02T08:41:40.345Z,97940.03
2022-09-02T08:44:08.671Z,97939.75
2022-09-02T08:46:36.709Z,97937.28
2022-09-02T08:49:08.824Z,97935.25
2022-09-02T08:51:41.622Z,97930.75
2022-09-02T08:54:21.264Z,97929.03
2022-09-02T08:56:51.771Z,97925.31
2022-09-02T08:59:22.445Z,97929.56
2022-09-02T09:01:58.358Z,97923.31
2022-09-02T09:04:43.976Z,97923.91
2022-09-02T09:07:25.218Z,97914.34
2022-09-02T09:10:06.241Z,97921.81
2022-09-02T09:12:50.237Z,97917.47
2022-09-02T09:15:26.200Z,97909.66
2022-09-02T09:17:58.485Z,97918.41
2022-09-02T09:20:28.418Z,97919.69
2022-09-02T09:22:58.907Z,97910.50
2022-09-02T09:25:29.742Z,97914.97
2022-09-02T09:27:58.008Z,97902.47
2022-09-02T09:30:25.752Z,97902.31
2022-09-02T09:32:55.356Z,97902.00
2022-09-02T09:35:23.267Z,97900.41
2022-09-02T09:37:52.808Z,97904.75
2022-09-02T09:40:29.110Z,97906.06
2022-09-02T09:42:59.324Z,97896.81
2022-09-02T09:45:32.216Z,97901.69
2022-09-02T09:48:23.477Z,97888.03
2022-09-02T09:51:13.427Z,97889.03
2022-09-02T09:53:41.546Z,97887.31
2022-09-02T09:56:30.367Z,97875.59
2022-09-02T09:58:58.162Z,97870.72
2022-09-02T10:01:29.872Z,97873.53
2022-09-02T10:04:20.707Z,97873.03
2022-09-02T10:06:55.130Z,97865.63
2022-09-02T10:09:35.267Z,97865.94
2022-09-02T10:12:06.412Z,97855.22
2022-09-02T10:14:36.911Z,97864.81
2022-09-02T10:17:28.830Z,97872.03
2022-09-02T10:20:08.105Z,97863.72
2022-09-02T10:23:04.749Z,97849.31
2022-09-02T10:25:41.004Z,97857.88
2022-09-02T10:28:24.294Z,97858.78
2022-09-02T10:31:07.340Z,97859.44
2022-09-02T10:33:46.033Z,97856.47
2022-09-02T10:36:25.124Z,97854.56
2022-09-02T10:38:58.474Z,97838.34
2022-09-02T10:44:30.205Z,97841.47
2022-09-02T10:47:04.892Z,97848.28
2022-09-02T10:50:01.582Z,97844.19
2022-09-02T10:52:52.833Z,97835.91
2022-09-02T10:55:28.861Z,97834.75
2022-09-02T10:58:04.078Z,97834.41
2022-09-02T11:00:35.676Z,97834.78
2022-09-02T11:03:14.960Z,97824.59
2022-09-02T11:05:48.099Z,97825.97
2022-09-02T11:08:23.160Z,97819.28
2022-09-02T11:11:01.638Z,97819.75
2022-09-02T11:13:41.269Z,97816.00
2022-09-02T11:16:20.090Z,97813.09
2022-09-02T11:18:59.553Z,97813.13
2022-09-02T11:21:49.232Z,97821.34
2022-09-02T11:24:22.933Z,97819.09
2022-09-02T11:26:58.620Z,97807.19
2022-09-02T11:29:39.460Z,97814.00
2022-09-02T11:32:23.016Z,97811.50
2022-09-02T11:35:00.480Z,97806.56
2022-09-02T11:37:35.724Z,97804.06
2022-09-02T11:40:33.302Z,97802.78
2022-09-02T11:43:07.654Z,97792.16
2022-09-02T11:46:07.238Z,97800.97
2022-09-02T11:49:05.934Z,97793.25
2022-09-02T11:52:17.951Z,97786.69
2022-09-02T11:54:50.184Z,97788.06
2022-09-02T11:57:23.356Z,97782.63
2022-09-02T12:00:08.497Z,97795.44
2022-09-02T12:02:49.583Z,97789.28
2022-09-02T12:05:47.918Z,97786.56
2022-09-02T12:09:11.931Z,97773.44
2022-09-02T12:11:51.230Z,97769.38
2022-09-02T12:15:10.385Z,97768.56
2022-09-02T12:18:10.109Z,97762.47
2022-09-02T12:21:18.761Z,97768.03
2022-09-02T12:24:25.483Z,97768.00
2022-09-02T12:27:28.459Z,97773.50
2022-09-02T12:30:02.276Z,97767.25
2022-09-02T12:33:13.656Z,97764.38
2022-09-02T12:35:59.962Z,97755.56
2022-09-02T12:38:37.404Z,97755.75
2022-09-02T12:41:43.770Z,97750.97
2022-09-02T12:44:33.906Z,97740.00
2022-09-02T12:47:15.704Z,97740.56
2022-09-02T12:49:54.975Z,97743.81
2022-09-02T12:52:46.908Z,97745.97
2022-09-02T12:55:22.274Z,97739.66
2022-09-02T12:57:52.425Z,97738.28
2022-09-02T13:00:33.472Z,97741.13
2022-09-02T13:03:37.819Z,97727.22
2022-09-02T13:06:12.905Z,97728.81
2022-09-02T13:09:03.026Z,97733.19
2022-09-02T13:12:05.945Z,97738.34
2022-09-02T13:14:59.273Z,97734.25
2022-09-02T13:18:11.703Z,97734.25
2022-09-02T13:21:05.414Z,97729.66
2022-09-02T13:24:19.337Z,97723.59
2022-09-02T13:27:20.362Z,97720.06
2022-09-02T13:30:07.940Z,97705.88
2022-09-02T13:32:38.022Z,97708.28
2022-09-02T13:35:08.571Z,97706.69
2022-09-02T13:37:43.390Z,97702.84
2022-09-02T13:40:20.286Z,97702.59
2022-09-02T13:42:51.750Z,97701.53
2022-09-02T13:45:20.684Z,97694.13
2022-09-02T13:47:51.450Z,97693.31
2022-09-02T13:50:22.879Z,97691.38
2022-09-02T13:55:53.388Z,97693.81
2022-09-02T13:58:34.204Z,97683.44
2022-09-02T14:01:28.659Z,97675.25
2022-09-02T14:04:00.010Z,97676.91
2022-09-02T14:06:34.285Z,97671.16
2022-09-02T14:09:09.039Z,97667.88
2022-09-02T14:11:45.589Z,97661.88
2022-09-02T14:14:22.526Z,97661.03
2022-09-02T14:16:51.316Z,97667.88
2022-09-02T14:19:25.944Z,97650.69
2022-09-02T14:21:56.016Z,97646.81
2022-09-02T14:24:28.912Z,97651.22
2022-09-02T14:26:57.825Z,97647.41
2022-09-02T14:29:29.876Z,97648.75
2022-09-02T14:32:12.059Z,97643.84
2022-09-02T14:34:41.504Z,97650.13
2022-09-02T14:37:27.937Z,97645.22
2022-09-02T14:40:08.909Z,97654.22
2022-09-02T14:42:48.522Z,97641.69
2022-09-02T14:45:27.056Z,97642.50
2022-09-02T14:47:56.260Z,97644.66
2022-09-02T14:50:29.703Z,97638.91
2022-09-02T14:53:04.742Z,97641.38
2022-09-02T14:55:53.528Z,97632.34
2022-09-02T14:58:27.046Z,97630.47
2022-09-02T15:01:03.902Z,97634.81
2022-09-02T15:03:40.317Z,97642.22
2022-09-02T15:06:13.217Z,97632.09
2022-09-02T15:08:45.925Z,97628.00
2022-09-02T15:11:16.625Z,97626.91
2022-09-02T15:13:44.206Z,97626.34
2022-09-02T15:16:13.253Z,97622.81
2022-09-02T15:18:41.164Z,97624.44
2022-09-02T15:21:09.784Z,97619.81
2022-09-02T15:23:41.164Z,97618.16
2022-09-02T15:26:12.556Z,97612.16
2022-09-02T15:28:40.172Z,97615.44
2022-09-02T15:31:07.797Z,97611.88
2022-09-02T15:33:37.484Z,97601.22
2022-09-02T15:36:09.308Z,97599.06
2022-09-02T15:41:14.247Z,97603.16
2022-09-02T15:43:41.820Z,97609.41
2022-09-02T15:46:19.894Z,97609.69
2022-09-02T15:48:49.633Z,97598.75
2022-09-02T15:51:18.997Z,97602.31
2022-09-02T15:53:49.062Z,97598.78
2022-09-02T15:56:18.561Z,97586.75
2022-09-02T15:58:46.616Z,97592.50
2022-09-02T16:01:15.099Z,97586.75
2022-09-02T16:03:44.171Z,97592.19
2022-09-02T16:06:13.700Z,97585.91
2022-09-02T16:08:41.337Z,97587.84
2022-09-02T16:11:09.901Z,97581.53
2022-09-02T16:13:37.918Z,97582.06
2022-09-02T16:16:07.713Z,97575.56
2022-09-02T16:18:36.369Z,97578.53
2022-09-02T16:21:05.367Z,97570.63
2022-09-02T16:23:34.970Z,97571.44
2022-09-02T16:26:15.741Z,97573.06
2022-09-02T16:28:45.645Z,97576.91
2022-09-02T16:31:17.280Z,97572.50
2022-09-02T16:33:45.331Z,97580.97
2022-09-02T16:36:13.016Z,97577.13
2022-09-02T16:38:41.968Z,97570.31
2022-09-02T16:41:25.927Z,97572.19
2022-09-02T16:43:54.120Z,97569.75
2022-09-02T16:46:21.863Z,97568.34
2022-09-02T16:48:50.075Z,97562.91
2022-09-02T16:51:18.750Z,97567.84
2022-09-02T16:53:47.729Z,97567.53
2022-09-02T16:56:18.047Z,97566.72
2022-09-02T16:58:45.603Z,97562.31
2022-09-02T17:01:13.700Z,97559.81
2022-09-02T17:03:42.258Z,97565.34
2022-09-02T17:14:41.893Z,97577.47
2022-09-02T17:17:14.868Z,97575.81
2022-09-02T17:19:42.452Z,97577.63
2022-09-02T17:22:10.162Z,97566.19
2022-09-02T17:24:39.574Z,97577.84
2022-09-02T17:27:07.151Z,97573.22
2022-09-02T17:29:50.408Z,97578.66
2022-09-02T17:32:19.889Z,97581.88
2022-09-02T17:34:49.674Z,97575.81
2022-09-02T17:37:17.266Z,97573.25
2022-09-02T17:39:44.917Z,97579.84
2022-09-02T17:42:13.288Z,97579.47
2022-09-02T17:44:41.886Z,97587.63
2022-09-02T17:47:11.659Z,97597.38
2022-09-02T17:49:42.157Z,97590.78
2022-09-02T17:52:09.921Z,97587.09
2022-09-02T17:54:39.156Z,97579.53
2022-09-02T17:57:21.240Z,97591.34
2022-09-02T18:00:02.857Z,97591.69
2022-09-02T18:02:39.541Z,97595.75
2022-09-02T18:05:18.004Z,97600.31
2022-09-02T18:07:51.094Z,97605.13
2022-09-02T18:10:18.748Z,97602.63
2022-09-02T18:12:46.348Z,97602.94
2022-09-02T18:15:17.931Z,97608.13
2022-09-02T18:17:48.734Z,97606.19
2022-09-02T18:20:27.840Z,97606.59
2022-09-02T18:23:25.797Z,97600.13
2022-09-02T18:26:03.681Z,97614.75
2022-09-02T18:28:46.132Z,97606.00
2022-09-02T18:31:30.629Z,97602.44
2022-09-02T18:34:15.951Z,97607.06
2022-09-02T18:36:55.546Z,97612.72
2022-09-02T18:39:37.650Z,97612.72
2022-09-02T18:42:18.222Z,97619.19
2022-09-02T18:44:54.255Z,97617.75
2022-09-02T18:47:26.049Z,97615.53
2022-09-02T18:49:58.450Z,97619.34
2022-09-02T18:52:29.900Z,97619.50
2022-09-02T18:55:03.673Z,97620.56
2022-09-02T18:57:37.705Z,97617.81
2022-09-02T19:00:09.867Z,97617.50
2022-09-02T19:02:43.360Z,97623.13
2022-09-02T19:05:13.638Z,97619.84
2022-09-02T19:08:02.946Z,97629.25
2022-09-02T19:10:30.776Z,97634.69
2022-09-02T19:13:00.018Z,97621.63
2022-09-02T19:15:28.135Z,97624.84
2022-09-02T19:17:56.080Z,97616.63
2022-09-02T19:20:23.940Z,97622.88
2022-09-02T19:22:57.243Z,97610.88
2022-09-02T19:25:28.973Z,97614.63
2022-09-02T19:27:58.169Z,97612.38
2022-09-02T19:30:25.721Z,97614.31
2022-09-02T19:32:55.853Z,97621.88
2022-09-02T19:35:26.142Z,97629.47
2022-09-02T19:37:55.955Z,97637.84
2022-09-02T19:40:26.274Z,97636.63
2022-09-02T19:42:54.144Z,97641.25
2022-09-02T19:45:22.418Z,97647.25
2022-09-02T19:48:07.504Z,97642.50
2022-09-02T19:50:37.174Z,97650.66
2022-09-02T19:53:07.141Z,97648.69
2022-09-02T19:55:35.839Z,97637.25
2022-09-02T19:58:03.484Z,97643.25
2022-09-02T20:00:33.208Z,97646.16
2022-09-02T20:03:00.963Z,97648.31
2022-09-02T20:05:29.887Z,97642.28
2022-09-02T20:07:57.495Z,97640.06
2022-09-02T20:10:28.267Z,97642.78
2022-09-02T20:12:58.274Z,97655.19
2022-09-02T20:15:25.859Z,97645.88
2022-09-02T20:17:53.607Z,97652.63
2022-09-02T20:20:23.848Z,97645.81
2022-09-02T20:22:55.678Z,97652.56
2022-09-02T20:25:32.107Z,97649.03
2022-09-02T20:28:16.221Z,97650.81
2022-09-02T20:30:52.159Z,97659.69
2022-09-02T20:33:22.020Z,97653.47
2022-09-02T20:36:02.980Z,97658.63
2022-09-02T20:38:51.733Z,97653.22
2022-09-02T20:41:30.233Z,97654.53
2022-09-02T20:44:20.769Z,97650.69
2022-09-02T20:47:06.797Z,97653.06
2022-09-02T20:49:54.018Z,97653.28
2022-09-02T20:52:31.298Z,97652.38
2022-09-02T20:55:08.927Z,97651.25
2022-09-02T20:58:12.707Z,97646.63
2022-09-02T21:00:48.616Z,97635.44
2022-09-02T21:03:17.782Z,97639.47
2022-09-02T21:05:52.352Z,97638.56
2022-09-02T21:08:28.615Z,97642.69
2022-09-02T21:10:59.905Z,97643.75
2022-09-02T21:13:36.429Z,97643.16
2022-09-02T21:16:10.121Z,97631.81
2022-09-02T21:18:42.598Z,97635.34
2022-09-02T21:21:21.925Z,97632.63
2022-09-02T21:23:54.043Z,97623.56
2022-09-02T21:26:32.515Z,97624.41
2022-09-02T21:29:10.969Z,97637.25
2022-09-02T21:31:43.370Z,97632.78
2022-09-02T21:34:19.777Z,97638.69
2022-09-02T21:36:47.443Z,97638.94
2022-09-02T21:39:18.592Z,97646.00
2022-09-02T21:41:52.704Z,97638.13
2022-09-02T21:44:28.878Z,97642.13
2022-09-02T21:47:07.478Z,97645.56
2022-09-02T21:49:49.988Z,97643.84
2022-09-02T21:52:26.948Z,97646.06
2022-09-02T21:55:04.603Z,97645.00
2022-09-02T21:57:51.569Z,97652.53
2022-09-02T22:00:24.380Z,97652.53
2022-09-02T22:03:00.175Z,97651.97
2022-09-02T22:05:39.301Z,97647.88
2022-09-02T22:08:14.761Z,97646.44
2022-09-02T22:10:54.396Z,97646.69
2022-09-02T22:13:24.482Z,97643.59
2022-09-02T22:15:58.225Z,97643.25
2022-09-02T22:18:39.275Z,97638.09
2022-09-02T22:21:17.167Z,97635.41
2022-09-02T22:23:44.788Z,97632.09
2022-09-02T22:26:25.011Z,97628.81
2022-09-02T22:28:59.698Z,97634.72
2022-09-02T22:31:29.905Z,97632.25
2022-09-02T22:34:02.603Z,97635.19
2022-09-02T22:36:40.047Z,97628.59
2022-09-02T22:39:08.160Z,97635.56
2022-09-02T22:41:47.924Z,97623.56
2022-09-02T22:44:22.043Z,97622.50
2022-09-02T22:47:13.941Z,97630.06
2022-09-02T22:50:03.741Z,97629.69
2022-09-02T22:52:49.508Z,97619.13
2022-09-02T22:55:27.356Z,97621.72
2022-09-02T22:58:05.254Z,97620.88
2022-09-02T23:00:40.430Z,97621.38
2022-09-02T23:03:15.906Z,97625.13
2022-09-02T23:05:53.425Z,97626.22
2022-09-02T23:08:22.705Z,97624.78
2022-09-02T23:10:56.986Z,97626.94
2022-09-02T23:13:41.968Z,97625.28
2022-09-02T23:16:19.914Z,97627.16
2022-09-02T23:19:00.872Z,97628.22
2022-09-02T23:21:37.225Z,97635.16
2022-09-02T23:24:17.459Z,97636.25
2022-09-02T23:26:55.254Z,97633.56
2022-09-02T23:29:26.302Z,97631.28
2022-09-02T23:32:27.115Z,97635.09
2022-09-02T23:35:13.965Z,97632.13
2022-09-02T23:38:00.166Z,97627.75
2022-09-02T23:40:32.231Z,97623.31
2022-09-02T23:43:01.221Z,97624.63
2022-09-02T23:45:31.249Z,97624.84
2022-09-02T23:48:14.696Z,97623.19
2022-09-02T23:50:57.291Z,97620.97
2022-09-02T23:53:32.561Z,97621.19
2022-09-02T23:56:13.969Z,97609.78
2022-09-02T23:58:59.812Z,97607.56
